sensor_id;sensor_type;location;lat;lon;timestamp;temperature;humidity
23597;DHT22;40226;50.874;4.394;2023-01-05T00:01:36;11.20;99.90
23597;DHT22;40226;50.874;4.394;2023-01-05T00:04:03;11.10;99.90
23597;DHT22;40226;50.874;4.394;2023-01-05T00:06:29;11.20;99.90
23597;DHT22;40226;50.874;4.394;2023-01-05T00:08:54;11.20;99.90
23597;DHT22;40226;50.874;4.394;2023-01-05T00:11:22;11.30;99.90
23597;DHT22;40226;50.874;4.394;2023-01-05T00:14:22;11.20;99.90
23597;DHT22;40226;50.874;4.394;2023-01-05T00:17:10;11.20;99.90
23597;DHT22;40226;50.874;4.394;2023-01-05T00:19:55;11.20;99.90
23597;DHT22;40226;50.874;4.394;2023-01-05T00:22:47;11.20;99.90
23597;DHT22;40226;50.874;4.394;2023-01-05T00:25:15;11.20;99.90
23597;DHT22;40226;50.874;4.394;2023-01-05T00:27:42;11.30;99.90
23597;DHT22;40226;50.874;4.394;2023-01-05T00:30:10;11.30;99.90
23597;DHT22;40226;50.874;4.394;2023-01-05T00:32:37;11.20;99.90
23597;DHT22;40226;50.874;4.394;2023-01-05T00:35:03;11.30;99.90
23597;DHT22;40226;50.874;4.394;2023-01-05T00:37:33;11.30;99.90
23597;DHT22;40226;50.874;4.394;2023-01-05T00:39:59;11.40;99.90
23597;DHT22;40226;50.874;4.394;2023-01-05T00:42:25;11.40;99.90
23597;DHT22;40226;50.874;4.394;2023-01-05T00:44:52;11.40;99.90
23597;DHT22;40226;50.874;4.394;2023-01-05T00:47:17;11.30;99.90
23597;DHT22;40226;50.874;4.394;2023-01-05T00:49:43;11.30;99.90
23597;DHT22;40226;50.874;4.394;2023-01-05T00:52:08;11.40;99.90
23597;DHT22;40226;50.874;4.394;2023-01-05T00:54:34;11.40;99.90
23597;DHT22;40226;50.874;4.394;2023-01-05T00:57:00;11.30;99.90
23597;DHT22;40226;50.874;4.394;2023-01-05T00:59:26;11.20;99.90
23597;DHT22;40226;50.874;4.394;2023-01-05T01:01:52;11.30;99.90
23597;DHT22;40226;50.874;4.394;2023-01-05T01:04:19;11.30;99.90
23597;DHT22;40226;50.874;4.394;2023-01-05T01:06:45;11.30;99.90
23597;DHT22;40226;50.874;4.394;2023-01-05T01:09:11;11.30;99.90
23597;DHT22;40226;50.874;4.394;2023-01-05T01:11:37;11.30;99.90
23597;DHT22;40226;50.874;4.394;2023-01-05T01:14:05;11.30;99.90
23597;DHT22;40226;50.874;4.394;2023-01-05T01:16:31;11.20;99.90
23597;DHT22;40226;50.874;4.394;2023-01-05T01:18:57;11.20;99.90
23597;DHT22;40226;50.874;4.394;2023-01-05T01:21:22;11.20;99.90
23597;DHT22;40226;50.874;4.394;2023-01-05T01:23:48;11.20;99.90
23597;DHT22;40226;50.874;4.394;2023-01-05T01:26:14;11.00;99.90
23597;DHT22;40226;50.874;4.394;2023-01-05T01:28:39;11.00;99.90
23597;DHT22;40226;50.874;4.394;2023-01-05T01:31:06;11.10;99.90
23597;DHT22;40226;50.874;4.394;2023-01-05T01:33:32;11.00;99.90
23597;DHT22;40226;50.874;4.394;2023-01-05T01:35:58;11.00;99.90
23597;DHT22;40226;50.874;4.394;2023-01-05T01:38:27;11.00;99.90
23597;DHT22;40226;50.874;4.394;2023-01-05T01:40:53;11.00;99.90
23597;DHT22;40226;50.874;4.394;2023-01-05T01:46:02;11.00;99.90
23597;DHT22;40226;50.874;4.394;2023-01-05T01:48:28;11.10;99.90
23597;DHT22;40226;50.874;4.394;2023-01-05T01:50:54;11.10;99.90
23597;DHT22;40226;50.874;4.394;2023-01-05T01:53:27;11.20;99.90
23597;DHT22;40226;50.874;4.394;2023-01-05T01:55:54;11.20;99.90
23597;DHT22;40226;50.874;4.394;2023-01-05T01:58:25;11.30;99.90
23597;DHT22;40226;50.874;4.394;2023-01-05T02:00:51;11.40;99.90
23597;DHT22;40226;50.874;4.394;2023-01-05T02:03:17;11.20;99.90
23597;DHT22;40226;50.874;4.394;2023-01-05T02:05:42;11.20;99.90
23597;DHT22;40226;50.874;4.394;2023-01-05T02:08:10;11.20;99.90
23597;DHT22;40226;50.874;4.394;2023-01-05T02:17:10;11.30;99.90
23597;DHT22;40226;50.874;4.394;2023-01-05T02:35:07;11.20;99.90
23597;DHT22;40226;50.874;4.394;2023-01-05T02:37:45;11.20;99.90
23597;DHT22;40226;50.874;4.394;2023-01-05T02:40:16;11.20;99.90
23597;DHT22;40226;50.874;4.394;2023-01-05T02:42:46;11.00;99.90
23597;DHT22;40226;50.874;4.394;2023-01-05T02:45:14;11.10;99.90
23597;DHT22;40226;50.874;4.394;2023-01-05T02:47:42;11.10;99.90
23597;DHT22;40226;50.874;4.394;2023-01-05T02:50:23;11.10;99.90
23597;DHT22;40226;50.874;4.394;2023-01-05T02:55:36;11.10;99.90
23597;DHT22;40226;50.874;4.394;2023-01-05T02:58:14;11.10;99.90
23597;DHT22;40226;50.874;4.394;2023-01-05T03:00:55;11.20;99.90
23597;DHT22;40226;50.874;4.394;2023-01-05T03:06:14;11.40;99.90
23597;DHT22;40226;50.874;4.394;2023-01-05T03:08:49;11.30;99.90
23597;DHT22;40226;50.874;4.394;2023-01-05T03:11:15;11.30;99.90
23597;DHT22;40226;50.874;4.394;2023-01-05T03:14:07;11.30;99.90
23597;DHT22;40226;50.874;4.394;2023-01-05T03:16:36;11.40;99.90
23597;DHT22;40226;50.874;4.394;2023-01-05T03:19:08;11.30;99.90
23597;DHT22;40226;50.874;4.394;2023-01-05T03:21:54;11.20;99.90
23597;DHT22;40226;50.874;4.394;2023-01-05T03:24:39;11.30;99.90
23597;DHT22;40226;50.874;4.394;2023-01-05T03:27:24;11.30;99.90
23597;DHT22;40226;50.874;4.394;2023-01-05T03:30:10;11.40;99.90
23597;DHT22;40226;50.874;4.394;2023-01-05T03:33:08;11.40;99.90
23597;DHT22;40226;50.874;4.394;2023-01-05T03:35:56;11.50;99.90
23597;DHT22;40226;50.874;4.394;2023-01-05T03:38:39;11.40;99.90
23597;DHT22;40226;50.874;4.394;2023-01-05T03:41:08;11.50;99.90
23597;DHT22;40226;50.874;4.394;2023-01-05T03:43:37;11.50;99.90
23597;DHT22;40226;50.874;4.394;2023-01-05T03:46:13;11.40;99.90
23597;DHT22;40226;50.874;4.394;2023-01-05T03:48:41;11.50;99.90
23597;DHT22;40226;50.874;4.394;2023-01-05T03:51:07;11.50;99.90
23597;DHT22;40226;50.874;4.394;2023-01-05T03:53:33;11.60;99.90
23597;DHT22;40226;50.874;4.394;2023-01-05T03:55:58;11.50;99.90
23597;DHT22;40226;50.874;4.394;2023-01-05T03:58:24;11.60;99.90
23597;DHT22;40226;50.874;4.394;2023-01-05T04:00:50;11.70;99.90
23597;DHT22;40226;50.874;4.394;2023-01-05T04:03:16;11.70;99.90
23597;DHT22;40226;50.874;4.394;2023-01-05T04:05:41;11.40;99.90
23597;DHT22;40226;50.874;4.394;2023-01-05T04:08:07;11.50;99.90
23597;DHT22;40226;50.874;4.394;2023-01-05T04:10:32;11.50;99.90
23597;DHT22;40226;50.874;4.394;2023-01-05T04:12:58;11.50;99.90
23597;DHT22;40226;50.874;4.394;2023-01-05T04:15:24;11.50;99.90
23597;DHT22;40226;50.874;4.394;2023-01-05T04:17:49;11.60;99.90
23597;DHT22;40226;50.874;4.394;2023-01-05T04:20:15;11.60;99.90
23597;DHT22;40226;50.874;4.394;2023-01-05T04:22:41;11.40;99.90
23597;DHT22;40226;50.874;4.394;2023-01-05T04:25:07;11.30;99.90
23597;DHT22;40226;50.874;4.394;2023-01-05T04:27:33;11.50;99.90
23597;DHT22;40226;50.874;4.394;2023-01-05T04:29:59;11.50;99.90
23597;DHT22;40226;50.874;4.394;2023-01-05T04:32:24;11.50;99.90
23597;DHT22;40226;50.874;4.394;2023-01-05T04:34:50;11.60;99.90
23597;DHT22;40226;50.874;4.394;2023-01-05T04:37:16;11.60;99.90
23597;DHT22;40226;50.874;4.394;2023-01-05T04:39:41;11.70;99.90
23597;DHT22;40226;50.874;4.394;2023-01-05T04:42:07;11.60;99.90
23597;DHT22;40226;50.874;4.394;2023-01-05T04:44:33;11.50;99.90
23597;DHT22;40226;50.874;4.394;2023-01-05T04:46:59;11.50;99.90
23597;DHT22;40226;50.874;4.394;2023-01-05T04:49:25;11.50;99.90
23597;DHT22;40226;50.874;4.394;2023-01-05T04:51:50;11.50;99.90
23597;DHT22;40226;50.874;4.394;2023-01-05T04:54:16;11.50;99.90
23597;DHT22;40226;50.874;4.394;2023-01-05T04:56:42;11.40;99.90
23597;DHT22;40226;50.874;4.394;2023-01-05T04:59:08;11.40;99.90
23597;DHT22;40226;50.874;4.394;2023-01-05T05:01:34;11.30;99.90
23597;DHT22;40226;50.874;4.394;2023-01-05T05:04:00;11.40;99.90
23597;DHT22;40226;50.874;4.394;2023-01-05T05:06:26;11.40;99.90
23597;DHT22;40226;50.874;4.394;2023-01-05T05:08:52;11.30;99.90
23597;DHT22;40226;50.874;4.394;2023-01-05T05:11:17;11.40;99.90
23597;DHT22;40226;50.874;4.394;2023-01-05T05:13:43;11.50;99.90
23597;DHT22;40226;50.874;4.394;2023-01-05T05:16:09;11.60;99.90
23597;DHT22;40226;50.874;4.394;2023-01-05T05:18:35;11.40;99.90
23597;DHT22;40226;50.874;4.394;2023-01-05T05:21:00;11.40;99.90
23597;DHT22;40226;50.874;4.394;2023-01-05T05:23:27;11.30;99.90
23597;DHT22;40226;50.874;4.394;2023-01-05T05:25:53;11.40;99.90
23597;DHT22;40226;50.874;4.394;2023-01-05T05:28:20;11.40;99.90
23597;DHT22;40226;50.874;4.394;2023-01-05T05:30:48;11.20;99.90
23597;DHT22;40226;50.874;4.394;2023-01-05T05:33:14;11.20;99.90
23597;DHT22;40226;50.874;4.394;2023-01-05T05:35:40;11.20;99.90
23597;DHT22;40226;50.874;4.394;2023-01-05T05:38:06;11.30;99.90
23597;DHT22;40226;50.874;4.394;2023-01-05T05:40:31;11.30;99.90
23597;DHT22;40226;50.874;4.394;2023-01-05T05:42:57;11.30;99.90
23597;DHT22;40226;50.874;4.394;2023-01-05T05:45:22;11.20;99.90
23597;DHT22;40226;50.874;4.394;2023-01-05T05:47:48;11.30;99.90
23597;DHT22;40226;50.874;4.394;2023-01-05T05:50:14;11.30;99.90
23597;DHT22;40226;50.874;4.394;2023-01-05T05:52:39;11.50;99.90
23597;DHT22;40226;50.874;4.394;2023-01-05T05:55:06;11.50;99.90
23597;DHT22;40226;50.874;4.394;2023-01-05T05:57:32;11.30;99.90
23597;DHT22;40226;50.874;4.394;2023-01-05T05:59:57;11.30;99.90
23597;DHT22;40226;50.874;4.394;2023-01-05T06:02:23;11.40;99.90
23597;DHT22;40226;50.874;4.394;2023-01-05T06:04:49;11.40;99.90
23597;DHT22;40226;50.874;4.394;2023-01-05T06:07:15;11.30;99.90
23597;DHT22;40226;50.874;4.394;2023-01-05T06:09:40;11.20;99.90
23597;DHT22;40226;50.874;4.394;2023-01-05T06:12:06;11.40;99.90
23597;DHT22;40226;50.874;4.394;2023-01-05T06:14:32;11.40;99.90
23597;DHT22;40226;50.874;4.394;2023-01-05T06:16:57;11.40;99.90
23597;DHT22;40226;50.874;4.394;2023-01-05T06:19:23;11.30;99.90
23597;DHT22;40226;50.874;4.394;2023-01-05T06:21:49;11.30;99.90
23597;DHT22;40226;50.874;4.394;2023-01-05T06:24:14;11.30;99.90
23597;DHT22;40226;50.874;4.394;2023-01-05T06:26:40;11.30;99.90
23597;DHT22;40226;50.874;4.394;2023-01-05T06:29:06;11.40;99.90
23597;DHT22;40226;50.874;4.394;2023-01-05T06:31:31;11.30;99.90
23597;DHT22;40226;50.874;4.394;2023-01-05T06:33:57;11.20;99.90
23597;DHT22;40226;50.874;4.394;2023-01-05T06:36:23;11.40;99.90
23597;DHT22;40226;50.874;4.394;2023-01-05T06:38:48;11.30;99.90
23597;DHT22;40226;50.874;4.394;2023-01-05T06:41:14;11.40;99.90
23597;DHT22;40226;50.874;4.394;2023-01-05T06:43:39;11.50;99.90
23597;DHT22;40226;50.874;4.394;2023-01-05T06:46:05;11.30;99.90
23597;DHT22;40226;50.874;4.394;2023-01-05T06:48:31;11.30;99.90
23597;DHT22;40226;50.874;4.394;2023-01-05T06:50:57;11.40;99.90
23597;DHT22;40226;50.874;4.394;2023-01-05T06:53:22;11.40;99.90
23597;DHT22;40226;50.874;4.394;2023-01-05T06:55:48;11.20;99.90
23597;DHT22;40226;50.874;4.394;2023-01-05T06:58:13;11.20;99.90
23597;DHT22;40226;50.874;4.394;2023-01-05T07:00:39;11.10;99.90
23597;DHT22;40226;50.874;4.394;2023-01-05T07:03:05;11.10;99.90
23597;DHT22;40226;50.874;4.394;2023-01-05T07:05:32;11.10;99.90
23597;DHT22;40226;50.874;4.394;2023-01-05T07:07:57;11.40;99.90
23597;DHT22;40226;50.874;4.394;2023-01-05T07:10:23;11.40;99.90
23597;DHT22;40226;50.874;4.394;2023-01-05T07:12:48;11.40;99.90
23597;DHT22;40226;50.874;4.394;2023-01-05T07:15:14;11.20;99.90
23597;DHT22;40226;50.874;4.394;2023-01-05T07:17:40;11.20;99.90
23597;DHT22;40226;50.874;4.394;2023-01-05T07:20:07;11.30;99.90
23597;DHT22;40226;50.874;4.394;2023-01-05T07:22:32;11.10;99.90
23597;DHT22;40226;50.874;4.394;2023-01-05T07:24:58;11.10;99.90
23597;DHT22;40226;50.874;4.394;2023-01-05T07:27:24;11.10;99.90
23597;DHT22;40226;50.874;4.394;2023-01-05T07:29:50;11.10;99.90
23597;DHT22;40226;50.874;4.394;2023-01-05T07:32:15;11.00;99.90
23597;DHT22;40226;50.874;4.394;2023-01-05T07:34:41;11.00;99.90
23597;DHT22;40226;50.874;4.394;2023-01-05T07:37:07;11.10;99.90
23597;DHT22;40226;50.874;4.394;2023-01-05T07:39:32;11.30;99.90
23597;DHT22;40226;50.874;4.394;2023-01-05T07:41:58;11.30;99.90
23597;DHT22;40226;50.874;4.394;2023-01-05T07:44:24;11.30;99.90
23597;DHT22;40226;50.874;4.394;2023-01-05T07:46:49;11.30;99.90
23597;DHT22;40226;50.874;4.394;2023-01-05T07:49:15;11.10;99.90
23597;DHT22;40226;50.874;4.394;2023-01-05T07:51:41;11.00;99.90
23597;DHT22;40226;50.874;4.394;2023-01-05T07:54:06;11.00;99.90
23597;DHT22;40226;50.874;4.394;2023-01-05T07:56:32;11.00;99.90
23597;DHT22;40226;50.874;4.394;2023-01-05T07:58:58;11.10;99.90
23597;DHT22;40226;50.874;4.394;2023-01-05T08:01:24;11.20;99.90
23597;DHT22;40226;50.874;4.394;2023-01-05T08:03:49;11.30;99.90
23597;DHT22;40226;50.874;4.394;2023-01-05T08:06:17;11.20;99.90
23597;DHT22;40226;50.874;4.394;2023-01-05T08:08:43;11.10;99.90
23597;DHT22;40226;50.874;4.394;2023-01-05T08:11:11;10.90;99.90
23597;DHT22;40226;50.874;4.394;2023-01-05T08:13:40;10.90;99.90
23597;DHT22;40226;50.874;4.394;2023-01-05T08:16:28;11.10;99.90
23597;DHT22;40226;50.874;4.394;2023-01-05T08:18:54;10.90;99.90
23597;DHT22;40226;50.874;4.394;2023-01-05T08:21:20;10.90;99.90
23597;DHT22;40226;50.874;4.394;2023-01-05T08:23:46;10.80;99.90
23597;DHT22;40226;50.874;4.394;2023-01-05T08:26:15;10.80;99.90
23597;DHT22;40226;50.874;4.394;2023-01-05T08:28:41;10.90;99.90
23597;DHT22;40226;50.874;4.394;2023-01-05T08:31:14;11.00;99.90
23597;DHT22;40226;50.874;4.394;2023-01-05T08:33:41;11.20;99.90
23597;DHT22;40226;50.874;4.394;2023-01-05T08:36:11;11.10;99.90
23597;DHT22;40226;50.874;4.394;2023-01-05T08:38:37;11.10;99.90
23597;DHT22;40226;50.874;4.394;2023-01-05T08:41:03;11.20;99.90
23597;DHT22;40226;50.874;4.394;2023-01-05T08:43:29;11.30;99.90
23597;DHT22;40226;50.874;4.394;2023-01-05T08:45:55;11.20;99.90
23597;DHT22;40226;50.874;4.394;2023-01-05T08:48:20;11.20;99.90
23597;DHT22;40226;50.874;4.394;2023-01-05T08:50:46;11.20;99.90
23597;DHT22;40226;50.874;4.394;2023-01-05T08:53:12;11.10;99.90
23597;DHT22;40226;50.874;4.394;2023-01-05T08:55:37;11.10;99.90
23597;DHT22;40226;50.874;4.394;2023-01-05T08:58:03;11.10;99.90
23597;DHT22;40226;50.874;4.394;2023-01-05T09:00:31;11.10;99.90
23597;DHT22;40226;50.874;4.394;2023-01-05T09:02:57;11.00;99.90
23597;DHT22;40226;50.874;4.394;2023-01-05T09:05:22;10.90;99.90
23597;DHT22;40226;50.874;4.394;2023-01-05T09:07:48;10.90;99.90
23597;DHT22;40226;50.874;4.394;2023-01-05T09:10:14;10.90;99.90
23597;DHT22;40226;50.874;4.394;2023-01-05T09:12:40;10.90;99.90
23597;DHT22;40226;50.874;4.394;2023-01-05T09:15:06;11.00;99.90
23597;DHT22;40226;50.874;4.394;2023-01-05T09:17:32;11.00;99.90
23597;DHT22;40226;50.874;4.394;2023-01-05T09:20:00;11.00;99.90
23597;DHT22;40226;50.874;4.394;2023-01-05T09:22:29;11.10;99.90
23597;DHT22;40226;50.874;4.394;2023-01-05T09:24:55;11.10;99.90
23597;DHT22;40226;50.874;4.394;2023-01-05T09:27:20;11.20;99.90
23597;DHT22;40226;50.874;4.394;2023-01-05T09:29:46;11.40;99.90
23597;DHT22;40226;50.874;4.394;2023-01-05T09:32:11;11.50;99.90
23597;DHT22;40226;50.874;4.394;2023-01-05T09:34:37;11.40;99.90
23597;DHT22;40226;50.874;4.394;2023-01-05T09:37:02;11.40;99.90
23597;DHT22;40226;50.874;4.394;2023-01-05T09:39:28;11.30;99.90
23597;DHT22;40226;50.874;4.394;2023-01-05T09:41:55;11.50;99.90
23597;DHT22;40226;50.874;4.394;2023-01-05T09:44:33;11.70;99.90
23597;DHT22;40226;50.874;4.394;2023-01-05T09:47:19;11.80;99.90
23597;DHT22;40226;50.874;4.394;2023-01-05T09:49:51;11.90;99.90
23597;DHT22;40226;50.874;4.394;2023-01-05T09:52:20;11.90;99.90
23597;DHT22;40226;50.874;4.394;2023-01-05T09:54:46;11.70;99.90
23597;DHT22;40226;50.874;4.394;2023-01-05T09:57:20;11.60;99.90
23597;DHT22;40226;50.874;4.394;2023-01-05T09:59:58;11.60;99.90
23597;DHT22;40226;50.874;4.394;2023-01-05T10:02:51;11.60;99.90
23597;DHT22;40226;50.874;4.394;2023-01-05T10:05:18;11.60;99.90
23597;DHT22;40226;50.874;4.394;2023-01-05T10:07:58;11.70;99.90
23597;DHT22;40226;50.874;4.394;2023-01-05T10:13:23;11.60;99.90
23597;DHT22;40226;50.874;4.394;2023-01-05T10:15:53;11.70;99.90
23597;DHT22;40226;50.874;4.394;2023-01-05T10:18:26;11.80;99.90
23597;DHT22;40226;50.874;4.394;2023-01-05T10:29:08;12.20;99.90
23597;DHT22;40226;50.874;4.394;2023-01-05T10:45:20;12.30;99.90
23597;DHT22;40226;50.874;4.394;2023-01-05T10:47:47;12.30;99.90
23597;DHT22;40226;50.874;4.394;2023-01-05T10:50:30;12.40;99.90
23597;DHT22;40226;50.874;4.394;2023-01-05T10:53:03;12.10;99.90
23597;DHT22;40226;50.874;4.394;2023-01-05T10:55:37;11.90;99.90
23597;DHT22;40226;50.874;4.394;2023-01-05T10:58:04;11.70;99.90
23597;DHT22;40226;50.874;4.394;2023-01-05T11:00:44;11.70;99.90
23597;DHT22;40226;50.874;4.394;2023-01-05T11:03:13;11.90;99.90
23597;DHT22;40226;50.874;4.394;2023-01-05T11:05:42;12.10;99.90
23597;DHT22;40226;50.874;4.394;2023-01-05T11:08:20;12.10;99.90
23597;DHT22;40226;50.874;4.394;2023-01-05T11:10:50;12.00;99.90
23597;DHT22;40226;50.874;4.394;2023-01-05T11:13:22;12.00;99.90
23597;DHT22;40226;50.874;4.394;2023-01-05T11:15:54;12.00;99.90
23597;DHT22;40226;50.874;4.394;2023-01-05T11:18:36;12.10;99.90
23597;DHT22;40226;50.874;4.394;2023-01-05T11:21:12;12.20;99.90
23597;DHT22;40226;50.874;4.394;2023-01-05T11:23:40;12.20;99.90
23597;DHT22;40226;50.874;4.394;2023-01-05T11:31:37;12.20;99.90
23597;DHT22;40226;50.874;4.394;2023-01-05T11:34:35;12.30;99.90
23597;DHT22;40226;50.874;4.394;2023-01-05T11:47:43;12.20;99.90
23597;DHT22;40226;50.874;4.394;2023-01-05T11:52:41;12.10;99.90
23597;DHT22;40226;50.874;4.394;2023-01-05T11:57:46;12.40;99.90
23597;DHT22;40226;50.874;4.394;2023-01-05T12:00:42;12.50;99.90
23597;DHT22;40226;50.874;4.394;2023-01-05T12:09:00;12.30;99.90
23597;DHT22;40226;50.874;4.394;2023-01-05T12:11:35;12.10;99.90
23597;DHT22;40226;50.874;4.394;2023-01-05T12:17:14;12.30;99.90
23597;DHT22;40226;50.874;4.394;2023-01-05T12:36:19;12.40;99.90
23597;DHT22;40226;50.874;4.394;2023-01-05T12:38:58;12.30;99.90
23597;DHT22;40226;50.874;4.394;2023-01-05T12:47:21;12.10;99.90
23597;DHT22;40226;50.874;4.394;2023-01-05T12:49:59;12.10;99.90
23597;DHT22;40226;50.874;4.394;2023-01-05T12:52:47;12.20;99.90
23597;DHT22;40226;50.874;4.394;2023-01-05T12:55:19;12.50;99.90
23597;DHT22;40226;50.874;4.394;2023-01-05T12:57:48;12.60;99.90
23597;DHT22;40226;50.874;4.394;2023-01-05T13:00:20;12.70;99.90
23597;DHT22;40226;50.874;4.394;2023-01-05T13:02:57;12.70;99.90
23597;DHT22;40226;50.874;4.394;2023-01-05T13:08:36;12.60;99.90
23597;DHT22;40226;50.874;4.394;2023-01-05T13:11:16;12.70;99.90
23597;DHT22;40226;50.874;4.394;2023-01-05T13:13:50;12.90;99.90
23597;DHT22;40226;50.874;4.394;2023-01-05T13:18:54;12.70;99.90
23597;DHT22;40226;50.874;4.394;2023-01-05T13:21:22;12.60;99.90
23597;DHT22;40226;50.874;4.394;2023-01-05T13:24:01;12.40;99.90
23597;DHT22;40226;50.874;4.394;2023-01-05T13:26:27;12.40;99.90
23597;DHT22;40226;50.874;4.394;2023-01-05T13:28:55;12.30;99.90
23597;DHT22;40226;50.874;4.394;2023-01-05T13:34:11;11.90;99.90
23597;DHT22;40226;50.874;4.394;2023-01-05T13:36:59;11.90;99.90
23597;DHT22;40226;50.874;4.394;2023-01-05T13:40:02;11.90;99.90
23597;DHT22;40226;50.874;4.394;2023-01-05T13:45:37;11.90;99.90
23597;DHT22;40226;50.874;4.394;2023-01-05T13:53:39;11.80;99.90
23597;DHT22;40226;50.874;4.394;2023-01-05T13:56:18;11.80;99.90
23597;DHT22;40226;50.874;4.394;2023-01-05T14:01:18;11.70;99.90
23597;DHT22;40226;50.874;4.394;2023-01-05T14:03:52;11.80;99.90
23597;DHT22;40226;50.874;4.394;2023-01-05T14:06:34;11.80;99.90
23597;DHT22;40226;50.874;4.394;2023-01-05T14:09:12;11.70;99.90
23597;DHT22;40226;50.874;4.394;2023-01-05T14:12:22;11.70;99.90
23597;DHT22;40226;50.874;4.394;2023-01-05T14:23:00;11.60;99.90
23597;DHT22;40226;50.874;4.394;2023-01-05T14:28:43;11.70;99.90
23597;DHT22;40226;50.874;4.394;2023-01-05T14:33:58;11.80;99.90
23597;DHT22;40226;50.874;4.394;2023-01-05T14:36:28;11.80;99.90
23597;DHT22;40226;50.874;4.394;2023-01-05T14:38:55;11.80;99.90
23597;DHT22;40226;50.874;4.394;2023-01-05T14:41:22;11.70;99.90
23597;DHT22;40226;50.874;4.394;2023-01-05T14:44:23;11.80;99.90
23597;DHT22;40226;50.874;4.394;2023-01-05T14:46:54;11.80;99.90
23597;DHT22;40226;50.874;4.394;2023-01-05T14:49:33;11.80;99.90
23597;DHT22;40226;50.874;4.394;2023-01-05T14:52:01;11.80;99.90
23597;DHT22;40226;50.874;4.394;2023-01-05T15:02:33;12.10;99.90
23597;DHT22;40226;50.874;4.394;2023-01-05T15:05:11;12.00;99.90
23597;DHT22;40226;50.874;4.394;2023-01-05T15:08:05;12.00;99.90
23597;DHT22;40226;50.874;4.394;2023-01-05T15:22:42;12.00;99.90
23597;DHT22;40226;50.874;4.394;2023-01-05T15:28:29;12.10;99.90
23597;DHT22;40226;50.874;4.394;2023-01-05T15:31:11;12.10;99.90
23597;DHT22;40226;50.874;4.394;2023-01-05T15:33:51;12.10;99.90
23597;DHT22;40226;50.874;4.394;2023-01-05T15:36:27;12.00;99.90
23597;DHT22;40226;50.874;4.394;2023-01-05T15:38:53;12.10;99.90
23597;DHT22;40226;50.874;4.394;2023-01-05T15:41:20;12.10;99.90
23597;DHT22;40226;50.874;4.394;2023-01-05T15:43:47;12.10;99.90
23597;DHT22;40226;50.874;4.394;2023-01-05T15:46:18;12.10;99.90
23597;DHT22;40226;50.874;4.394;2023-01-05T15:48:47;12.20;99.90
23597;DHT22;40226;50.874;4.394;2023-01-05T15:51:28;12.10;99.90
23597;DHT22;40226;50.874;4.394;2023-01-05T15:53:58;12.10;99.90
23597;DHT22;40226;50.874;4.394;2023-01-05T15:56:35;12.10;99.90
23597;DHT22;40226;50.874;4.394;2023-01-05T15:59:02;12.00;99.90
23597;DHT22;40226;50.874;4.394;2023-01-05T16:01:28;12.00;99.90
23597;DHT22;40226;50.874;4.394;2023-01-05T16:04:07;12.00;99.90
23597;DHT22;40226;50.874;4.394;2023-01-05T16:06:34;12.00;99.90
23597;DHT22;40226;50.874;4.394;2023-01-05T16:09:09;12.00;99.90
23597;DHT22;40226;50.874;4.394;2023-01-05T16:11:44;12.00;99.90
23597;DHT22;40226;50.874;4.394;2023-01-05T16:14:19;12.10;99.90
23597;DHT22;40226;50.874;4.394;2023-01-05T16:16:52;12.00;99.90
23597;DHT22;40226;50.874;4.394;2023-01-05T16:19:45;12.00;99.90
23597;DHT22;40226;50.874;4.394;2023-01-05T16:27:27;12.00;99.90
23597;DHT22;40226;50.874;4.394;2023-01-05T16:29:53;12.00;99.90
23597;DHT22;40226;50.874;4.394;2023-01-05T16:34:51;12.10;99.90
23597;DHT22;40226;50.874;4.394;2023-01-05T16:37:36;12.00;99.90
23597;DHT22;40226;50.874;4.394;2023-01-05T16:40:02;12.00;99.90
23597;DHT22;40226;50.874;4.394;2023-01-05T16:42:28;12.00;99.90
23597;DHT22;40226;50.874;4.394;2023-01-05T16:44:57;12.10;99.90
23597;DHT22;40226;50.874;4.394;2023-01-05T16:47:35;12.00;99.90
23597;DHT22;40226;50.874;4.394;2023-01-05T16:53:11;11.90;99.90
23597;DHT22;40226;50.874;4.394;2023-01-05T16:55:38;12.00;99.90
23597;DHT22;40226;50.874;4.394;2023-01-05T16:58:34;12.10;99.90
23597;DHT22;40226;50.874;4.394;2023-01-05T17:01:24;12.10;99.90
23597;DHT22;40226;50.874;4.394;2023-01-05T17:03:51;12.00;99.90
23597;DHT22;40226;50.874;4.394;2023-01-05T17:06:28;12.10;99.90
23597;DHT22;40226;50.874;4.394;2023-01-05T17:08:57;12.00;99.90
23597;DHT22;40226;50.874;4.394;2023-01-05T17:11:30;12.00;99.90
23597;DHT22;40226;50.874;4.394;2023-01-05T17:13:59;12.00;99.90
23597;DHT22;40226;50.874;4.394;2023-01-05T17:16:26;11.90;99.90
23597;DHT22;40226;50.874;4.394;2023-01-05T17:18:52;11.80;99.90
23597;DHT22;40226;50.874;4.394;2023-01-05T17:21:27;11.80;99.90
23597;DHT22;40226;50.874;4.394;2023-01-05T17:23:55;11.90;99.90
23597;DHT22;40226;50.874;4.394;2023-01-05T17:26:28;11.90;99.90
23597;DHT22;40226;50.874;4.394;2023-01-05T17:28:56;11.90;99.90
23597;DHT22;40226;50.874;4.394;2023-01-05T17:31:24;11.90;99.90
23597;DHT22;40226;50.874;4.394;2023-01-05T17:33:49;11.90;99.90
23597;DHT22;40226;50.874;4.394;2023-01-05T17:36:16;11.80;99.90
23597;DHT22;40226;50.874;4.394;2023-01-05T17:38:42;11.80;99.90
23597;DHT22;40226;50.874;4.394;2023-01-05T17:41:10;11.70;99.90
23597;DHT22;40226;50.874;4.394;2023-01-05T17:43:36;11.70;99.90
23597;DHT22;40226;50.874;4.394;2023-01-05T17:46:02;11.70;99.90
23597;DHT22;40226;50.874;4.394;2023-01-05T17:48:28;11.70;99.90
23597;DHT22;40226;50.874;4.394;2023-01-05T17:50:54;11.70;99.90
23597;DHT22;40226;50.874;4.394;2023-01-05T17:53:19;11.80;99.90
23597;DHT22;40226;50.874;4.394;2023-01-05T17:55:45;11.80;99.90
23597;DHT22;40226;50.874;4.394;2023-01-05T17:58:12;11.80;99.90
23597;DHT22;40226;50.874;4.394;2023-01-05T18:00:38;11.80;99.90
23597;DHT22;40226;50.874;4.394;2023-01-05T18:03:13;11.80;99.90
23597;DHT22;40226;50.874;4.394;2023-01-05T18:05:41;11.80;99.90
23597;DHT22;40226;50.874;4.394;2023-01-05T18:08:08;11.80;99.90
23597;DHT22;40226;50.874;4.394;2023-01-05T18:10:35;11.80;99.90
23597;DHT22;40226;50.874;4.394;2023-01-05T18:13:01;11.80;99.90
23597;DHT22;40226;50.874;4.394;2023-01-05T18:15:26;11.90;99.90
23597;DHT22;40226;50.874;4.394;2023-01-05T18:17:56;12.00;99.90
23597;DHT22;40226;50.874;4.394;2023-01-05T18:20:21;11.90;99.90
23597;DHT22;40226;50.874;4.394;2023-01-05T18:22:47;11.90;99.90
23597;DHT22;40226;50.874;4.394;2023-01-05T18:25:13;11.90;99.90
23597;DHT22;40226;50.874;4.394;2023-01-05T18:27:38;11.80;99.90
23597;DHT22;40226;50.874;4.394;2023-01-05T18:30:05;11.90;99.90
23597;DHT22;40226;50.874;4.394;2023-01-05T18:32:33;11.80;99.90
23597;DHT22;40226;50.874;4.394;2023-01-05T18:34:58;11.90;99.90
23597;DHT22;40226;50.874;4.394;2023-01-05T18:37:24;11.90;99.90
23597;DHT22;40226;50.874;4.394;2023-01-05T18:39:50;12.00;99.90
23597;DHT22;40226;50.874;4.394;2023-01-05T18:42:15;12.10;99.90